Coral Ruby — 3ERR6 — position and weather

sailwx.info

Track history (hours):
 
Tides and Currents Weather Stations Pressure Air Temp Water Temp Dewpoint Dewpoint Depression Visibility Wind Speed Wind Dir Waves Ship Positions

Coral Ruby

Last reported at 2017-May-14 20:31 UTC. Time now 2017-May-29 01:59 UTC.
Position N 01°15' E 104°05'.
Warning: this ship's position is 14 days out of date.

Length 225 m; draft 6.4 m.

Type: Cargo ship. MMSI: 370150000.

Date/timePositionNaut miles runAvg speedWind from/ knotsBaromVisibWave heightAir tempDewpointWater temp
2017-May-14 20:31N 01°15' E 104°05'016.3
2017-May-14 20:30N 01°15' E 104°05'714.4
2017-May-14 20:00N 01°14' E 103°58'714.8
2017-May-14 19:30N 01°11' E 103°51'714.7
2017-May-14 19:00N 01°07' E 103°45'713.7
2017-May-14 18:30N 01°04' E 103°39'612.3
2017-May-14 18:00N 01°06' E 103°34'612.5
2017-May-14 17:30N 01°09' E 103°28'612.6
2017-May-14 16:59N 01°13' E 103°23'613.0
2017-May-14 16:29N 01°17' E 103°18'5613.2
2017-May-14 12:14N 01°46' E 102°30'712.4
2017-May-14 11:42N 01°49' E 102°24'312.5
2017-May-14 11:28N 01°50' E 102°21'  
2017-May-09 15:31N 01°55' E 102°20'013.7
2017-May-09 15:29N 01°55' E 102°20'612.2
2017-May-09 15:00N 01°52' E 102°25'611.7
2017-May-09 14:30N 01°50' E 102°31'1111.2
2017-May-09 13:30N 01°45' E 102°40'610.9
2017-May-09 12:59N 01°42' E 102°46'9 3.7
2017-May-09 10:32N 01°46' E 102°37'010.0
2017-May-09 10:30N 01°46' E 102°38'611.3
2017-May-09 10:00N 01°43' E 102°43'611.8
2017-May-09 09:29N 01°40' E 102°48'4612.9
2017-May-09 05:52N 01°14' E 103°26'512.1
2017-May-09 05:30N 01°13' E 103°31'611.4
2017-May-09 05:00N 01°11' E 103°36'711.1
2017-May-09 04:24N 01°09' E 103°42'510.6
2017-May-09 03:57N 01°10' E 103°47'512.0
2017-May-09 03:29N 01°12' E 103°52'611.8
2017-May-09 02:59N 01°15' E 103°58'511.6
2017-May-09 02:31N 01°16' E 104°03'  
Track history (hours):
 
Tides and Currents Weather Stations Pressure Air Temp Water Temp Dewpoint Dewpoint Depression Visibility Wind Speed Wind Dir Waves Ship Positions

Coral Ruby

Last reported at 2017-May-14 20:31 UTC. Time now 2017-May-29 01:59 UTC.
Position N 01°15' E 104°05'.
Warning: this ship's position is 14 days out of date.

Length 225 m; draft 6.4 m.

Type: Cargo ship. MMSI: 370150000.

Date/timePositionNaut miles runAvg speedWind from/ knotsBaromVisibWave heightAir tempDewpointWater temp
2017-May-14 20:31N 01°15' E 104°05'016.3
2017-May-14 20:30N 01°15' E 104°05'714.4
2017-May-14 20:00N 01°14' E 103°58'714.8
2017-May-14 19:30N 01°11' E 103°51'714.7
2017-May-14 19:00N 01°07' E 103°45'713.7
2017-May-14 18:30N 01°04' E 103°39'612.3
2017-May-14 18:00N 01°06' E 103°34'612.5
2017-May-14 17:30N 01°09' E 103°28'612.6
2017-May-14 16:59N 01°13' E 103°23'613.0
2017-May-14 16:29N 01°17' E 103°18'5613.2
2017-May-14 12:14N 01°46' E 102°30'712.4
2017-May-14 11:42N 01°49' E 102°24'312.5
2017-May-14 11:28N 01°50' E 102°21'  
2017-May-09 15:31N 01°55' E 102°20'013.7
2017-May-09 15:29N 01°55' E 102°20'612.2
2017-May-09 15:00N 01°52' E 102°25'611.7
2017-May-09 14:30N 01°50' E 102°31'1111.2
2017-May-09 13:30N 01°45' E 102°40'610.9
2017-May-09 12:59N 01°42' E 102°46'9 3.7
2017-May-09 10:32N 01°46' E 102°37'010.0
2017-May-09 10:30N 01°46' E 102°38'611.3
2017-May-09 10:00N 01°43' E 102°43'611.8
2017-May-09 09:29N 01°40' E 102°48'4612.9
2017-May-09 05:52N 01°14' E 103°26'512.1
2017-May-09 05:30N 01°13' E 103°31'611.4
2017-May-09 05:00N 01°11' E 103°36'711.1
2017-May-09 04:24N 01°09' E 103°42'510.6
2017-May-09 03:57N 01°10' E 103°47'512.0
2017-May-09 03:29N 01°12' E 103°52'611.8
2017-May-09 02:59N 01°15' E 103°58'511.6
2017-May-09 02:31N 01°16' E 104°03'  

Dump ship's entire track history